| time (UTC) | temp F | wind direction | speed MPH | gust MPH | rain 1hr in | rain 24hr in | rain mn in | humidity % | barometer mb |
| 20260508193056 | 62 | 290 | 2.0 | 6.0 | 0.00 | 0.00 | 0.00 | 65 | 1010.3 |
| 20260508191556 | 63 | 227 | 4.0 | 10.0 | 0.00 | 0.00 | 0.00 | 63 | 1010.5 |
| 20260508190058 | 62 | 190 | 4.0 | 12.0 | 0.00 | 0.00 | 0.00 | 62 | 1010.6 |
| 20260508184555 | 63 | 233 | 3.0 | 12.0 | 0.00 | 0.00 | 0.00 | 63 | 1010.9 |
| 20260508183053 | 63 | 292 | 3.0 | 7.0 | 0.00 | 0.00 | 0.00 | 63 | 1010.9 |
| 20260508181556 | 64 | 249 | 3.0 | 16.0 | 0.00 | 0.00 | 0.00 | 64 | 1010.9 |
| 20260508180058 | 64 | 214 | 5.0 | 12.0 | 0.00 | 0.00 | 0.00 | 62 | 1011.0 |
| 20260508174609 | 66 | 209 | 5.0 | 11.0 | 0.00 | 0.00 | 0.00 | 60 | 1011.1 |
| 20260508173050 | 65 | 237 | 4.0 | 12.0 | 0.00 | 0.00 | 0.00 | 63 | 1011.4 |
| 20260508171554 | 63 | 205 | 4.0 | 12.0 | 0.00 | 0.00 | 0.00 | 64 | 1011.7 |
| 20260508170052 | 62 | 175 | 3.0 | 12.0 | 0.00 | 0.00 | 0.00 | 65 | 1012.0 |
| 20260508164551 | 63 | 206 | 3.0 | 12.0 | 0.00 | 0.00 | 0.00 | 64 | 1012.2 |
| 20260508163053 | 63 | 234 | 4.0 | 13.0 | 0.00 | 0.00 | 0.00 | 63 | 1012.4 |
| 20260508161551 | 62 | 217 | 4.0 | 9.0 | 0.00 | 0.00 | 0.00 | 66 | 1012.4 |
| 20260508160055 | 63 | 255 | 10.0 | 17.0 | 0.00 | 0.00 | 0.00 | 61 | 1012.6 |
| 20260508154558 | 63 | 222 | 7.0 | 17.0 | 0.00 | 0.00 | 0.00 | 63 | 1012.8 |
| 20260508153053 | 63 | 254 | 9.0 | 18.0 | 0.00 | 0.00 | 0.00 | 63 | 1012.7 |
| 20260508151554 | 62 | 237 | 6.0 | 16.0 | 0.00 | 0.00 | 0.00 | 65 | 1012.8 |
| 20260508150050 | 61 | 263 | 10.0 | 16.0 | 0.00 | 0.00 | 0.00 | 65 | 1012.7 |
| 20260508144552 | 60 | 255 | 6.0 | 15.0 | 0.00 | 0.00 | 0.00 | 66 | 1012.9 |
| 20260508143058 | 59 | 284 | 9.0 | 18.0 | 0.00 | 0.00 | 0.00 | 66 | 1013.2 |
| 20260508141555 | 58 | 250 | 7.0 | 19.0 | 0.00 | 0.00 | 0.00 | 68 | 1013.2 |
| 20260508140059 | 57 | 198 | 5.0 | 14.0 | 0.00 | 0.00 | 0.00 | 68 | 1013.3 |
| 20260508134555 | 56 | 221 | 4.0 | 12.0 | 0.00 | 0.00 | 0.00 | 69 | 1013.5 |
| 20260508133057 | 55 | 246 | 4.0 | 12.0 | 0.00 | 0.00 | 0.00 | 71 | 1013.5 |
| 20260508131552 | 54 | 260 | 5.0 | 13.0 | 0.00 | 0.00 | 0.00 | 70 | 1013.6 |
| 20260508124555 | 52 | 244 | 2.0 | 7.0 | 0.00 | 0.00 | 0.00 | 75 | 1013.7 |
| 20260508123057 | 51 | 263 | 2.0 | 7.0 | 0.00 | 0.00 | 0.00 | 76 | 1013.6 |
| 20260508121557 | 50 | 0 | 1.0 | 4.0 | 0.00 | 0.00 | 0.00 | 78 | 1013.6 |
| 20260508120056 | 50 | 219 | 0.0 | 3.0 | 0.00 | 0.00 | 0.00 | 79 | 1013.6 |
| 20260508114552 | 48 | 0 | 0.0 | 3.0 | 0.00 | 0.01 | 0.00 | 82 | 1013.4 |
| 20260508113107 | 46 | 0 | 1.0 | 3.0 | 0.00 | 0.01 | 0.00 | 84 | 1013.3 |
| 20260508111551 | 46 | 0 | 0.0 | 4.0 | 0.00 | 0.01 | 0.00 | 82 | 1013.0 |
| 20260508110051 | 46 | 216 | 0.0 | 5.0 | 0.00 | 0.01 | 0.00 | 81 | 1013.0 |
| 20260508104555 | 46 | 203 | 0.0 | 4.0 | 0.00 | 0.01 | 0.00 | 80 | 1012.9 |
| 20260508103052 | 46 | 203 | 0.0 | 8.0 | 0.00 | 0.01 | 0.00 | 79 | 1012.8 |
| 20260508101554 | 46 | 166 | 0.0 | 5.0 | 0.00 | 0.01 | 0.00 | 80 | 1012.7 |
| 20260508100055 | 46 | 0 | 0.0 | 1.0 | 0.00 | 0.01 | 0.00 | 79 | 1012.8 |
| 20260508094558 | 47 | 215 | 0.0 | 3.0 | 0.00 | 0.01 | 0.00 | 77 | 1012.9 |
| 20260508093056 | 48 | 216 | 0.0 | 2.0 | 0.00 | 0.01 | 0.00 | 76 | 1012.9 |
| 20260508091601 | 48 | 0 | 0.0 | 3.0 | 0.00 | 0.01 | 0.00 | 77 | 1013.1 |
| 20260508090104 | 48 | 0 | 0.0 | 3.0 | 0.00 | 0.01 | 0.00 | 77 | 1013.2 |
| 20260508084554 | 48 | 0 | 0.0 | 3.0 | 0.00 | 0.01 | 0.00 | 77 | 1013.2 |
| 20260508083050 | 48 | 0 | 0.0 | 4.0 | 0.00 | 0.01 | 0.00 | 77 | 1013.3 |
| 20260508081606 | 48 | 0 | 0.0 | 0.0 | 0.00 | 0.01 | 0.00 | 75 | 1013.2 |
| 20260508080054 | 48 | 0 | 0.0 | 2.0 | 0.00 | 0.01 | 0.00 | 74 | 1013.2 |
| 20260508074551 | 49 | 0 | 0.0 | 5.0 | 0.00 | 0.01 | 0.00 | 74 | 1013.2 |
| 20260508073105 | 49 | 0 | 1.0 | 4.0 | 0.00 | 0.01 | 0.00 | 74 | 1013.1 |
| 20260508071604 | 49 | 213 | 1.0 | 6.0 | 0.00 | 0.01 | 0.00 | 75 | 1013.2 |
| 20260508070100 | 49 | 218 | 1.0 | 8.0 | 0.00 | 0.01 | 0.00 | 77 | 1013.6 |
| 20260508064554 | 50 | 229 | 2.0 | 6.0 | 0.00 | 0.01 | 0.00 | 74 | 1013.6 |
| 20260508063053 | 50 | 229 | 1.0 | 6.0 | 0.00 | 0.01 | 0.00 | 72 | 1013.6 |
| 20260508061552 | 49 | 213 | 1.0 | 5.0 | 0.00 | 0.01 | 0.00 | 72 | 1013.5 |
| 20260508060055 | 49 | 225 | 0.0 | 3.0 | 0.00 | 0.01 | 0.00 | 71 | 1013.6 |
| 20260508054551 | 49 | 220 | 1.0 | 6.0 | 0.00 | 0.01 | 0.00 | 70 | 1013.6 |
| 20260508053053 | 50 | 190 | 2.0 | 6.0 | 0.00 | 0.01 | 0.00 | 69 | 1013.6 |
| 20260508051548 | 50 | 184 | 1.0 | 3.0 | 0.00 | 0.01 | 0.00 | 71 | 1013.7 |
| 20260508050050 | 49 | 223 | 1.0 | 5.0 | 0.00 | 0.01 | 0.00 | 72 | 1013.7 |
| 20260508044558 | 48 | 196 | 1.0 | 4.0 | 0.00 | 0.01 | 0.00 | 76 | 1013.7 |
| 20260508043053 | 48 | 0 | 0.0 | 4.0 | 0.00 | 0.01 | 0.00 | 78 | 1013.7 |
| 20260508041554 | 47 | 0 | 0.0 | 4.0 | 0.00 | 0.01 | 0.00 | 79 | 1013.7 |
| 20260508040058 | 46 | 211 | 1.0 | 5.0 | 0.00 | 0.01 | 0.00 | 82 | 1013.6 |
| 20260508034554 | 46 | 263 | 0.0 | 2.0 | 0.00 | 0.01 | 0.01 | 83 | 1013.6 |
| 20260508033113 | 47 | 0 | 0.0 | 1.0 | 0.00 | 0.01 | 0.01 | 82 | 1013.6 |
| 20260508031557 | 48 | 0 | 0.0 | 1.0 | 0.00 | 0.01 | 0.01 | 81 | 1013.6 |
| 20260508030106 | 48 | 0 | 0.0 | 1.0 | 0.00 | 0.01 | 0.01 | 80 | 1013.7 |
| 20260508024618 | 48 | 0 | 0.0 | 2.0 | 0.00 | 0.01 | 0.01 | 80 | 1013.6 |
| 20260508023058 | 48 | 0 | 0.0 | 1.0 | 0.00 | 0.01 | 0.01 | 81 | 1013.4 |
| 20260508021555 | 48 | 0 | 0.0 | 1.0 | 0.00 | 0.01 | 0.01 | 82 | 1013.4 |
| 20260508020107 | 48 | 0 | 0.0 | 2.0 | 0.00 | 0.01 | 0.01 | 80 | 1013.5 |
| 20260508014556 | 48 | 0 | 0.0 | 1.0 | 0.00 | 0.01 | 0.01 | 79 | 1013.2 |
| 20260508013105 | 49 | 0 | 0.0 | 1.0 | 0.00 | 0.01 | 0.01 | 78 | 1013.3 |
| 20260508011547 | 50 | 278 | 0.0 | 0.0 | 0.00 | 0.01 | 0.01 | 77 | 1013.5 |
| 20260508010115 | 51 | 0 | 0.0 | 1.0 | 0.00 | 0.01 | 0.01 | 73 | 1013.4 |
| 20260508004557 | 52 | 0 | 0.0 | 1.0 | 0.00 | 0.01 | 0.01 | 71 | 1013.4 |
| 20260508003056 | 53 | 278 | 0.0 | 9.0 | 0.00 | 0.01 | 0.01 | 68 | 1013.6 |
| 20260508001556 | 54 | 272 | 0.0 | 6.0 | 0.00 | 0.01 | 0.01 | 67 | 1013.7 |
| 20260508000055 | 55 | 239 | 3.0 | 12.0 | 0.00 | 0.01 | 0.01 | 59 | 1013.6 |
| 20260507234553 | 55 | 275 | 5.0 | 15.0 | 0.00 | 0.01 | 0.01 | 57 | 1013.6 |
| 20260507233053 | 56 | 296 | 5.0 | 18.0 | 0.00 | 0.01 | 0.01 | 59 | 1013.5 |
| 20260507231552 | 57 | 280 | 5.0 | 11.0 | 0.00 | 0.01 | 0.01 | 52 | 1013.2 |
| 20260507230052 | 58 | 270 | 5.0 | 9.0 | 0.00 | 0.01 | 0.01 | 50 | 1013.1 |
| 20260507224553 | 58 | 262 | 2.0 | 11.0 | 0.00 | 0.01 | 0.01 | 50 | 1013.1 |
| 20260507223053 | 59 | 275 | 4.0 | 9.0 | 0.00 | 0.01 | 0.01 | 50 | 1013.3 |
| 20260507221553 | 60 | 259 | 2.0 | 13.0 | 0.00 | 0.01 | 0.01 | 48 | 1013.2 |
| 20260507220056 | 60 | 270 | 5.0 | 10.0 | 0.00 | 0.01 | 0.01 | 47 | 1013.1 |
| 20260507214555 | 59 | 287 | 5.0 | 16.0 | 0.00 | 0.01 | 0.01 | 48 | 1013.2 |
| 20260507213057 | 61 | 248 | 2.0 | 12.0 | 0.00 | 0.01 | 0.01 | 52 | 1013.1 |
| 20260507211553 | 61 | 270 | 3.0 | 7.0 | 0.00 | 0.01 | 0.01 | 45 | 1013.2 |
| 20260507210050 | 61 | 261 | 3.0 | 8.0 | 0.00 | 0.01 | 0.01 | 49 | 1013.3 |
| 20260507204551 | 60 | 292 | 1.0 | 11.0 | 0.00 | 0.01 | 0.01 | 49 | 1013.5 |
| 20260507203047 | 60 | 278 | 1.0 | 13.0 | 0.00 | 0.01 | 0.01 | 47 | 1013.6 |
| 20260507201553 | 58 | 269 | 2.0 | 16.0 | 0.00 | 0.01 | 0.01 | 48 | 1013.8 |
| 20260507200051 | 59 | 225 | 9.0 | 15.0 | 0.00 | 0.01 | 0.01 | 51 | 1014.0 |
| 20260507194553 | 59 | 307 | 1.0 | 12.0 | 0.00 | 0.01 | 0.01 | 57 | 1014.0 |